createdAt,value
2019-05-02T00:00:14.450Z,58.33
2019-05-02T00:02:16.052Z,58.32
2019-05-02T00:04:20.112Z,58.34
2019-05-02T00:06:19.335Z,58.61
2019-05-02T00:08:20.948Z,58.62
2019-05-02T00:10:24.971Z,58.55
2019-05-02T00:12:24.211Z,58.33
2019-05-02T00:14:25.820Z,58.41
2019-05-02T00:16:27.426Z,58.44
2019-05-02T00:18:31.969Z,58.58
2019-05-02T00:20:30.658Z,58.72
2019-05-02T00:22:32.294Z,58.70
2019-05-02T00:24:38.789Z,58.63
2019-05-02T00:26:35.562Z,58.43
2019-05-02T00:28:37.184Z,58.15
2019-05-02T00:30:38.772Z,58.42
2019-05-02T00:32:40.495Z,58.50
2019-05-02T00:34:42.080Z,58.68
2019-05-02T00:36:43.678Z,58.85
2019-05-02T00:38:45.319Z,58.96
2019-05-02T00:40:46.972Z,59.06
2019-05-02T00:42:48.565Z,58.83
2019-05-02T00:44:50.160Z,58.69
2019-05-02T00:46:51.772Z,58.67
2019-05-02T00:48:54.296Z,58.87
2019-05-02T00:50:55.055Z,58.90
2019-05-02T00:52:56.651Z,59.17
2019-05-02T00:54:58.669Z,59.34
2019-05-02T00:56:59.880Z,59.13
2019-05-02T00:59:02.270Z,59.30
2019-05-02T01:01:15.056Z,59.13
2019-05-02T01:03:17.945Z,59.06
2019-05-02T01:05:18.317Z,59.16
2019-05-02T01:07:20.477Z,59.28
2019-05-02T01:09:21.610Z,59.47
2019-05-02T01:11:23.196Z,59.59
2019-05-02T01:13:24.808Z,59.82
2019-05-02T01:15:26.382Z,59.61
2019-05-02T01:17:30.901Z,60.01
2019-05-02T01:19:29.647Z,59.83
2019-05-02T01:21:34.002Z,60.01
2019-05-02T01:23:32.914Z,60.47
2019-05-02T01:25:34.556Z,60.79
2019-05-02T01:27:52.969Z,61.06
2019-05-02T01:30:01.686Z,61.60
2019-05-02T01:31:59.215Z,61.22
2019-05-02T01:34:03.776Z,61.19
2019-05-02T01:36:08.865Z,61.01
2019-05-02T01:38:16.067Z,61.07
2019-05-02T01:40:18.893Z,60.97
2019-05-02T01:42:19.329Z,61.11
2019-05-02T01:44:20.932Z,61.12
2019-05-02T01:46:24.123Z,62.09
2019-05-02T01:48:24.168Z,62.13
2019-05-02T01:50:28.884Z,62.70
2019-05-02T01:52:27.354Z,62.67
2019-05-02T01:54:28.956Z,62.64
2019-05-02T01:56:33.231Z,62.08
2019-05-02T01:58:32.177Z,62.10
2019-05-02T02:00:33.750Z,61.69
2019-05-02T02:02:35.392Z,61.72
2019-05-02T02:04:36.971Z,61.35
2019-05-02T02:06:42.853Z,61.06
2019-05-02T02:08:40.412Z,61.07
2019-05-02T02:10:43.880Z,61.25
2019-05-02T02:13:02.438Z,61.35
2019-05-02T02:14:48.116Z,60.99
2019-05-02T02:16:47.265Z,60.66
2019-05-02T02:18:51.460Z,60.89
2019-05-02T02:20:58.711Z,61.15
2019-05-02T02:23:00.286Z,61.26
2019-05-02T02:25:16.792Z,61.11
2019-05-02T02:27:20.033Z,60.92
2019-05-02T02:29:20.030Z,60.84
2019-05-02T02:31:21.640Z,60.59
2019-05-02T02:33:23.226Z,60.86
2019-05-02T02:35:24.869Z,60.97
2019-05-02T02:37:26.481Z,61.23
2019-05-02T02:39:28.129Z,61.16
2019-05-02T02:41:29.746Z,61.13
2019-05-02T02:43:34.668Z,61.33
2019-05-02T02:45:38.489Z,61.44
2019-05-02T02:47:40.131Z,61.16
2019-05-02T02:49:41.740Z,61.29
2019-05-02T02:51:43.346Z,61.26
2019-05-02T02:53:44.956Z,61.11
2019-05-02T02:55:46.589Z,61.28
2019-05-02T02:57:48.197Z,61.39
2019-05-02T02:59:49.796Z,61.41
2019-05-02T03:01:51.416Z,61.57
2019-05-02T03:03:53.020Z,61.58
2019-05-02T03:05:58.605Z,61.58
2019-05-02T03:07:59.417Z,61.58
2019-05-02T03:09:59.551Z,61.51
2019-05-02T03:12:05.221Z,61.36
2019-05-02T03:14:09.621Z,61.49
2019-05-02T03:16:10.709Z,61.80
2019-05-02T03:18:12.319Z,61.37
2019-05-02T03:20:13.918Z,61.18
2019-05-02T03:22:15.532Z,61.88
2019-05-02T03:24:17.141Z,61.71
2019-05-02T03:26:18.737Z,61.66
2019-05-02T03:28:21.000Z,61.77
2019-05-02T03:30:33.011Z,61.59
2019-05-02T03:32:33.074Z,61.28
2019-05-02T03:34:45.304Z,61.51
2019-05-02T03:36:30.772Z,61.33
2019-05-02T03:38:32.420Z,60.94
2019-05-02T03:40:32.343Z,61.42
2019-05-02T03:42:43.891Z,61.21
2019-05-02T03:44:34.004Z,60.96
2019-05-02T03:46:35.593Z,61.38
2019-05-02T03:48:37.206Z,61.14
2019-05-02T03:50:38.819Z,61.30
2019-05-02T03:52:43.357Z,61.23
2019-05-02T03:54:50.305Z,61.06
2019-05-02T03:56:44.842Z,61.19
2019-05-02T03:58:48.762Z,61.17
2019-05-02T04:00:47.011Z,60.80
2019-05-02T04:02:59.577Z,60.85
2019-05-02T04:04:54.080Z,60.94
2019-05-02T04:06:55.092Z,60.85
2019-05-02T04:08:59.370Z,60.82
2019-05-02T04:10:59.351Z,60.54
2019-05-02T04:12:58.461Z,60.75
2019-05-02T04:14:58.540Z,60.92
2019-05-02T04:17:00.167Z,60.84
2019-05-02T04:19:01.755Z,60.89
2019-05-02T04:21:03.365Z,60.91
2019-05-02T04:23:04.958Z,61.03
2019-05-02T04:25:06.641Z,61.00
2019-05-02T04:27:08.217Z,61.25
2019-05-02T04:29:09.829Z,61.00
2019-05-02T04:31:11.444Z,60.91
2019-05-02T04:33:13.060Z,61.46
2019-05-02T04:35:14.640Z,61.35
2019-05-02T04:37:16.229Z,61.29
2019-05-02T04:39:21.482Z,61.18
2019-05-02T04:41:28.827Z,61.32
2019-05-02T04:43:21.240Z,61.13
2019-05-02T04:45:29.252Z,60.99
2019-05-02T04:47:24.501Z,61.01
2019-05-02T04:49:29.746Z,61.18
2019-05-02T04:51:31.799Z,61.20
2019-05-02T04:53:36.726Z,61.01
2019-05-02T04:55:33.356Z,60.92
2019-05-02T04:57:36.855Z,60.97
2019-05-02T04:59:34.382Z,60.69
2019-05-02T05:01:46.296Z,60.64
2019-05-02T05:03:37.735Z,60.80
2019-05-02T05:05:40.320Z,60.79
2019-05-02T05:07:45.729Z,60.72
2019-05-02T05:09:50.120Z,60.64
2019-05-02T05:11:44.238Z,60.68
2019-05-02T05:13:47.761Z,60.48
2019-05-02T05:15:51.300Z,60.82
2019-05-02T05:17:50.116Z,60.79
2019-05-02T05:19:50.808Z,60.86
2019-05-02T05:21:56.713Z,60.75
2019-05-02T05:24:08.914Z,60.57
2019-05-02T05:26:10.500Z,60.58
2019-05-02T05:28:12.124Z,60.59
2019-05-02T05:30:15.642Z,60.40
2019-05-02T05:32:15.353Z,60.42
2019-05-02T05:34:17.377Z,60.54
2019-05-02T05:36:20.047Z,60.04
2019-05-02T05:38:22.905Z,59.92
2019-05-02T05:40:22.690Z,59.79
2019-05-02T05:42:31.870Z,59.90
2019-05-02T05:44:28.688Z,59.90
2019-05-02T05:46:28.016Z,60.50
2019-05-02T05:48:32.175Z,59.94
2019-05-02T05:50:32.146Z,60.33
2019-05-02T05:52:33.186Z,59.91
2019-05-02T05:54:40.459Z,59.98
2019-05-02T05:56:39.699Z,59.96
2019-05-02T05:58:39.956Z,59.97
2019-05-02T06:00:38.681Z,59.79
2019-05-02T06:02:53.023Z,59.79
2019-05-02T06:04:41.964Z,59.89
2019-05-02T06:06:43.572Z,59.94
2019-05-02T06:08:49.295Z,60.03
2019-05-02T06:10:46.838Z,60.00
2019-05-02T06:12:48.448Z,59.99
2019-05-02T06:14:50.092Z,59.99
2019-05-02T06:16:53.048Z,60.06
2019-05-02T06:18:53.320Z,59.96
2019-05-02T06:20:54.924Z,60.52
2019-05-02T06:23:00.102Z,60.24
2019-05-02T06:24:58.175Z,59.92
2019-05-02T06:26:59.755Z,59.84
2019-05-02T06:29:01.360Z,60.22
2019-05-02T06:31:07.364Z,60.47
2019-05-02T06:33:04.621Z,60.46
2019-05-02T06:35:06.259Z,60.54
2019-05-02T06:37:08.324Z,60.32
2019-05-02T06:39:09.552Z,60.26
2019-05-02T06:41:11.118Z,60.20
2019-05-02T06:43:12.707Z,60.29
2019-05-02T06:45:14.339Z,60.25
2019-05-02T06:47:15.957Z,59.90
2019-05-02T06:49:17.604Z,59.83
2019-05-02T06:51:20.782Z,59.69
2019-05-02T06:53:20.839Z,59.59
2019-05-02T06:55:22.488Z,59.47
2019-05-02T06:57:25.790Z,59.35
2019-05-02T06:59:25.750Z,59.29
2019-05-02T07:01:27.323Z,59.30
2019-05-02T07:03:28.908Z,59.23
2019-05-02T07:05:30.632Z,59.20
2019-05-02T07:07:36.870Z,59.19
2019-05-02T07:09:40.956Z,59.07
2019-05-02T07:11:38.949Z,58.98
2019-05-02T07:13:42.183Z,58.85
2019-05-02T07:15:44.656Z,58.77
2019-05-02T07:17:46.244Z,58.67
2019-05-02T07:19:48.452Z,58.53
2019-05-02T07:21:53.044Z,58.49
2019-05-02T07:23:53.822Z,58.46
2019-05-02T07:25:53.346Z,58.44
2019-05-02T07:27:54.932Z,58.50
2019-05-02T07:29:57.759Z,58.51
2019-05-02T07:31:58.158Z,58.46
2019-05-02T07:33:59.766Z,58.38
2019-05-02T07:36:01.490Z,58.21
2019-05-02T07:38:03.002Z,58.09
2019-05-02T07:40:04.620Z,57.90
2019-05-02T07:42:07.872Z,57.66
2019-05-02T07:44:07.856Z,57.44
2019-05-02T07:46:09.464Z,57.37
2019-05-02T07:48:12.701Z,57.29
2019-05-02T07:50:12.758Z,57.32
2019-05-02T07:52:14.380Z,57.17
2019-05-02T07:54:19.310Z,57.21
2019-05-02T07:56:18.880Z,57.08
2019-05-02T07:58:19.282Z,56.59
2019-05-02T08:00:20.886Z,55.83
2019-05-02T08:02:25.101Z,55.34
2019-05-02T08:04:24.176Z,55.05
2019-05-02T08:06:35.128Z,55.00
2019-05-02T08:08:29.930Z,55.64
2019-05-02T08:10:29.130Z,54.64
2019-05-02T08:12:30.769Z,54.69
2019-05-02T08:14:34.624Z,55.07
2019-05-02T08:16:34.064Z,55.00
2019-05-02T08:18:35.677Z,54.64
2019-05-02T08:20:37.292Z,54.43
2019-05-02T08:22:38.896Z,54.58
2019-05-02T08:24:40.480Z,54.54
2019-05-02T08:26:47.631Z,54.46
2019-05-02T08:28:52.034Z,54.31
2019-05-02T08:30:51.825Z,54.40
2019-05-02T08:32:53.448Z,54.70
2019-05-02T08:34:55.061Z,54.75
2019-05-02T08:36:58.803Z,54.50
2019-05-02T08:38:58.295Z,54.16
2019-05-02T08:40:59.881Z,54.28
2019-05-02T08:43:03.525Z,54.32
2019-05-02T08:45:03.294Z,53.78
2019-05-02T08:47:17.678Z,53.55
2019-05-02T08:49:06.497Z,53.31
2019-05-02T08:51:08.070Z,53.20
2019-05-02T08:53:14.117Z,53.62
2019-05-02T08:55:11.356Z,53.39
2019-05-02T08:57:12.948Z,53.75
2019-05-02T08:59:14.563Z,53.29
2019-05-02T09:01:16.188Z,52.93
2019-05-02T09:03:17.782Z,53.38
2019-05-02T09:05:19.362Z,53.19
2019-05-02T09:07:20.981Z,52.93
2019-05-02T09:09:27.466Z,53.21
2019-05-02T09:11:24.270Z,53.90
2019-05-02T09:13:29.140Z,53.69
2019-05-02T09:15:27.516Z,53.70
2019-05-02T09:17:37.779Z,53.73
2019-05-02T09:19:34.559Z,53.08
2019-05-02T09:21:35.959Z,53.54
2019-05-02T09:23:37.076Z,53.93
2019-05-02T09:25:35.725Z,53.81
2019-05-02T09:27:37.312Z,53.84
2019-05-02T09:29:44.501Z,53.36
2019-05-02T09:31:42.328Z,53.43
2019-05-02T09:33:46.665Z,53.76
2019-05-02T09:35:43.784Z,52.86
2019-05-02T09:37:45.383Z,53.26
2019-05-02T09:39:46.996Z,53.13
2019-05-02T09:41:48.616Z,52.92
2019-05-02T09:43:52.032Z,53.07
2019-05-02T09:45:52.123Z,53.25
2019-05-02T09:48:01.486Z,53.18
2019-05-02T09:50:02.771Z,53.07
2019-05-02T09:52:03.330Z,52.86
2019-05-02T09:54:06.368Z,53.02
2019-05-02T09:56:05.903Z,53.48
2019-05-02T09:58:10.359Z,53.43
2019-05-02T10:00:09.192Z,53.58
2019-05-02T10:02:12.572Z,53.27
2019-05-02T10:04:12.569Z,53.45
2019-05-02T10:06:18.203Z,53.57
2019-05-02T10:08:15.879Z,53.71
2019-05-02T10:10:17.488Z,53.48
2019-05-02T10:12:19.085Z,53.25
2019-05-02T10:14:22.648Z,53.75
2019-05-02T10:16:23.614Z,53.58
2019-05-02T10:18:28.288Z,53.55
2019-05-02T10:20:34.185Z,53.43
2019-05-02T10:22:32.281Z,53.31
2019-05-02T10:24:29.013Z,53.63
2019-05-02T10:26:32.834Z,53.21
2019-05-02T10:28:32.312Z,52.47
2019-05-02T10:30:36.049Z,51.76
2019-05-02T10:32:35.591Z,53.20
2019-05-02T10:34:37.196Z,53.23
2019-05-02T10:36:38.788Z,53.28
2019-05-02T10:38:42.527Z,53.42
2019-05-02T10:40:42.490Z,53.60
2019-05-02T10:42:43.713Z,53.17
2019-05-02T10:44:45.303Z,53.70
2019-05-02T10:46:52.246Z,54.44
2019-05-02T10:49:08.867Z,54.98
2019-05-02T10:51:16.110Z,55.26
2019-05-02T10:53:17.720Z,55.46
2019-05-02T10:55:21.684Z,55.65
2019-05-02T10:57:21.945Z,55.64
2019-05-02T10:59:22.834Z,55.96
2019-05-02T11:01:24.442Z,56.08
2019-05-02T11:03:28.597Z,56.28
2019-05-02T11:05:31.553Z,56.28
2019-05-02T11:07:32.697Z,56.46
2019-05-02T11:09:33.493Z,56.50
2019-05-02T11:11:35.080Z,56.69
2019-05-02T11:13:55.028Z,56.74
2019-05-02T11:15:57.776Z,56.75
2019-05-02T11:17:59.399Z,56.82
2019-05-02T11:20:04.641Z,57.08
2019-05-02T11:22:06.232Z,57.00
2019-05-02T11:24:07.856Z,57.04
2019-05-02T11:26:09.442Z,56.69
2019-05-02T11:28:12.418Z,55.36
2019-05-02T11:30:16.717Z,55.77
2019-05-02T11:32:14.431Z,55.28
2019-05-02T11:34:16.052Z,54.99
2019-05-02T11:36:17.660Z,54.87
2019-05-02T11:38:36.261Z,54.94
2019-05-02T11:40:22.712Z,55.16
2019-05-02T11:42:27.115Z,55.43
2019-05-02T11:44:24.245Z,55.26
2019-05-02T11:46:25.888Z,55.31
2019-05-02T11:48:27.504Z,55.41
2019-05-02T11:50:31.960Z,55.50
2019-05-02T11:52:35.677Z,55.60
2019-05-02T11:54:32.435Z,55.59
2019-05-02T11:56:34.017Z,55.63
2019-05-02T11:58:35.619Z,55.48
2019-05-02T12:00:39.702Z,55.39
2019-05-02T12:02:58.041Z,55.46
2019-05-02T12:04:56.282Z,55.57
2019-05-02T12:07:01.359Z,55.50
2019-05-02T12:08:59.537Z,55.18
2019-05-02T12:11:01.959Z,55.11
2019-05-02T12:13:06.704Z,54.92
2019-05-02T12:15:04.490Z,54.82
2019-05-02T12:17:06.159Z,54.84
2019-05-02T12:19:11.384Z,54.83
2019-05-02T12:21:09.392Z,55.08
2019-05-02T12:23:12.790Z,55.46
2019-05-02T12:25:12.820Z,55.69
2019-05-02T12:27:14.332Z,55.24
2019-05-02T12:29:15.920Z,55.05
2019-05-02T12:31:17.486Z,55.39
2019-05-02T12:33:19.109Z,55.12
2019-05-02T12:35:22.422Z,55.32
2019-05-02T12:37:22.332Z,55.69
2019-05-02T12:39:23.935Z,55.63
2019-05-02T12:41:25.541Z,55.83
2019-05-02T12:43:27.123Z,55.95
2019-05-02T12:45:28.730Z,55.88
2019-05-02T12:47:31.923Z,56.00
2019-05-02T12:49:32.446Z,56.07
2019-05-02T12:51:33.651Z,55.86
2019-05-02T12:53:35.236Z,55.83
2019-05-02T12:55:36.844Z,55.81
2019-05-02T12:57:38.455Z,56.07
2019-05-02T12:59:41.667Z,56.24
2019-05-02T13:01:42.242Z,56.34
2019-05-02T13:03:44.189Z,56.46
2019-05-02T13:05:45.804Z,56.50
2019-05-02T13:07:50.507Z,56.57
2019-05-02T13:09:49.056Z,56.59
2019-05-02T13:11:52.398Z,56.62
2019-05-02T13:13:53.866Z,56.60
2019-05-02T13:15:55.566Z,56.53
2019-05-02T13:17:57.092Z,56.48
2019-05-02T13:20:03.149Z,56.21
2019-05-02T13:22:15.242Z,56.14
2019-05-02T13:24:25.909Z,56.04
2019-05-02T13:26:27.092Z,56.02
2019-05-02T13:28:26.012Z,56.02
2019-05-02T13:30:32.843Z,56.03
2019-05-02T13:32:32.153Z,56.06
2019-05-02T13:34:37.509Z,55.93
2019-05-02T13:36:39.102Z,56.00
2019-05-02T13:38:42.343Z,56.11
2019-05-02T13:40:42.355Z,56.17
2019-05-02T13:42:43.949Z,56.21
2019-05-02T13:44:52.666Z,56.13
2019-05-02T13:46:53.582Z,56.16
2019-05-02T13:48:54.632Z,56.24
2019-05-02T13:50:56.456Z,56.31
2019-05-02T13:52:58.187Z,56.26
2019-05-02T13:55:01.227Z,56.29
2019-05-02T13:57:03.156Z,56.33
2019-05-02T13:59:03.106Z,56.38
2019-05-02T14:01:05.196Z,56.39
2019-05-02T14:03:06.835Z,56.46
2019-05-02T14:05:08.496Z,56.53
2019-05-02T14:07:13.255Z,56.56
2019-05-02T14:09:22.488Z,56.61
2019-05-02T14:11:28.903Z,56.62
2019-05-02T14:13:31.629Z,56.62
2019-05-02T14:15:34.115Z,56.65
2019-05-02T14:17:35.765Z,56.67
2019-05-02T14:19:37.371Z,56.73
2019-05-02T14:21:39.048Z,56.78
2019-05-02T14:23:42.023Z,56.83
2019-05-02T14:25:42.691Z,56.84
2019-05-02T14:27:46.931Z,56.77
2019-05-02T14:29:45.724Z,56.57
2019-05-02T14:31:47.368Z,56.36
2019-05-02T14:33:54.566Z,56.21
2019-05-02T14:35:56.192Z,56.24
2019-05-02T14:38:03.524Z,56.26
2019-05-02T14:40:05.937Z,56.15
2019-05-02T14:42:07.526Z,56.12
2019-05-02T14:44:09.115Z,56.10
2019-05-02T14:46:12.493Z,56.15
2019-05-02T14:48:21.081Z,56.19
2019-05-02T14:50:23.668Z,56.10
2019-05-02T14:52:16.040Z,56.10
2019-05-02T14:54:17.628Z,56.24
2019-05-02T14:56:30.038Z,56.34
2019-05-02T14:58:32.457Z,56.43
2019-05-02T15:00:39.359Z,56.57
2019-05-02T15:02:47.239Z,56.62
2019-05-02T15:04:44.566Z,56.70
2019-05-02T15:06:47.413Z,56.76
2019-05-02T15:08:45.920Z,56.79
2019-05-02T15:10:52.985Z,56.78
2019-05-02T15:12:53.489Z,56.66
2019-05-02T15:14:57.413Z,56.51
2019-05-02T15:16:56.609Z,56.40
2019-05-02T15:18:57.010Z,55.88
2019-05-02T15:20:55.828Z,55.60
2019-05-02T15:22:57.485Z,55.47
2019-05-02T15:24:59.100Z,55.36
2019-05-02T15:27:05.450Z,55.24
2019-05-02T15:29:02.400Z,55.22
2019-05-02T15:31:06.537Z,55.29
2019-05-02T15:33:09.711Z,55.32
2019-05-02T15:35:17.725Z,55.34
2019-05-02T15:37:22.193Z,55.47
2019-05-02T15:41:21.960Z,55.61
2019-05-02T15:43:23.556Z,55.64
2019-05-02T15:45:25.137Z,55.72
2019-05-02T15:47:26.720Z,55.68
2019-05-02T15:49:28.330Z,55.63
2019-05-02T15:51:29.915Z,55.59
2019-05-02T15:53:34.206Z,55.58
2019-05-02T15:55:39.557Z,55.54
2019-05-02T15:57:43.084Z,55.46
2019-05-02T15:59:43.226Z,55.48
2019-05-02T16:01:47.749Z,55.42
2019-05-02T16:03:47.285Z,55.54
2019-05-02T16:05:48.888Z,55.64
2019-05-02T16:07:52.255Z,55.71
2019-05-02T16:09:59.430Z,55.80
2019-05-02T16:11:56.960Z,55.95
2019-05-02T16:13:56.375Z,56.05
2019-05-02T16:16:02.252Z,56.11
2019-05-02T16:18:01.935Z,56.25
2019-05-02T16:20:07.652Z,56.33
2019-05-02T16:22:06.893Z,56.43
2019-05-02T16:24:14.690Z,56.47
2019-05-02T16:26:12.830Z,56.49
2019-05-02T16:28:14.452Z,56.50
2019-05-02T16:30:16.060Z,56.50
2019-05-02T16:32:21.988Z,56.49
2019-05-02T16:34:27.456Z,56.40
2019-05-02T16:36:32.978Z,56.30
2019-05-02T16:38:26.724Z,56.24
2019-05-02T16:40:30.238Z,56.28
2019-05-02T16:42:29.620Z,56.36
2019-05-02T16:44:32.247Z,56.39
2019-05-02T16:46:32.864Z,56.36
2019-05-02T16:48:37.578Z,56.36
2019-05-02T16:50:36.996Z,56.19
2019-05-02T16:52:38.189Z,56.07
2019-05-02T16:54:41.713Z,56.07
2019-05-02T16:56:42.314Z,55.97
2019-05-02T16:58:47.057Z,55.96
2019-05-02T17:00:45.606Z,56.04
2019-05-02T17:02:46.489Z,56.09
2019-05-02T17:04:47.751Z,56.20
2019-05-02T17:06:49.372Z,56.22
2019-05-02T17:08:57.403Z,56.24
2019-05-02T17:10:56.747Z,56.22
2019-05-02T17:12:57.675Z,56.17
2019-05-02T17:15:01.835Z,56.13
2019-05-02T17:17:03.414Z,56.04
2019-05-02T17:19:04.982Z,55.99
2019-05-02T17:21:06.596Z,55.83
2019-05-02T17:23:08.192Z,55.74
2019-05-02T17:25:09.816Z,55.61
2019-05-02T17:27:12.973Z,55.61
2019-05-02T17:29:16.517Z,55.53
2019-05-02T17:31:19.563Z,55.51
2019-05-02T17:33:16.567Z,55.53
2019-05-02T17:35:17.980Z,55.55
2019-05-02T17:37:21.613Z,55.58
2019-05-02T17:39:22.326Z,55.68
2019-05-02T17:41:23.060Z,55.79
2019-05-02T17:43:24.671Z,55.95
2019-05-02T17:45:26.261Z,56.06
2019-05-02T17:47:30.906Z,56.07
2019-05-02T17:49:31.813Z,56.15
2019-05-02T17:51:37.547Z,56.18
2019-05-02T17:53:41.313Z,56.03
2019-05-02T17:55:40.235Z,55.90
2019-05-02T17:57:38.696Z,55.85
2019-05-02T17:59:42.058Z,55.76
2019-05-02T18:01:42.041Z,55.61
2019-05-02T18:03:43.672Z,55.55
2019-05-02T18:05:45.261Z,55.51
2019-05-02T18:07:46.876Z,55.44
2019-05-02T18:09:48.511Z,55.41
2019-05-02T18:11:51.693Z,55.40
2019-05-02T18:13:51.839Z,55.41
2019-05-02T18:15:53.583Z,55.38
2019-05-02T18:17:59.911Z,55.49
2019-05-02T18:20:01.091Z,55.53
2019-05-02T18:22:03.565Z,55.64
2019-05-02T18:24:02.532Z,55.75
2019-05-02T18:26:05.017Z,55.86
2019-05-02T18:28:03.341Z,55.96
2019-05-02T18:30:04.932Z,56.05
2019-05-02T18:32:06.499Z,56.09
2019-05-02T18:34:12.560Z,56.15
2019-05-02T18:36:09.733Z,56.22
2019-05-02T18:38:11.324Z,56.30
2019-05-02T18:40:12.914Z,56.19
2019-05-02T18:42:16.656Z,56.00
2019-05-02T18:44:17.363Z,55.92
2019-05-02T18:46:19.953Z,55.70
2019-05-02T18:48:21.677Z,55.49
2019-05-02T18:50:22.391Z,55.34
2019-05-02T18:52:35.065Z,55.21
2019-05-02T18:54:24.560Z,55.15
2019-05-02T18:56:26.146Z,55.09
2019-05-02T18:58:27.728Z,54.98
2019-05-02T19:00:37.640Z,54.92
2019-05-02T19:02:32.700Z,54.96
2019-05-02T19:04:38.152Z,54.95
2019-05-02T19:06:36.204Z,54.92
2019-05-02T19:08:45.245Z,55.05
2019-05-02T19:10:42.511Z,55.12
2019-05-02T19:12:39.238Z,55.15
2019-05-02T19:14:41.990Z,55.04
2019-05-02T19:16:42.687Z,55.04
2019-05-02T19:18:44.146Z,54.99
2019-05-02T19:20:52.532Z,55.01
2019-05-02T19:22:51.881Z,54.91
2019-05-02T19:24:49.713Z,54.88
2019-05-02T19:26:53.267Z,54.88
2019-05-02T19:29:08.401Z,54.96
2019-05-02T19:31:07.030Z,55.04
2019-05-02T19:33:08.161Z,55.11
2019-05-02T19:35:09.748Z,55.08
2019-05-02T19:37:12.125Z,54.99
2019-05-02T19:39:13.118Z,54.98
2019-05-02T19:41:14.740Z,55.01
2019-05-02T19:43:16.358Z,55.11
2019-05-02T19:45:17.948Z,55.17
2019-05-02T19:47:19.572Z,55.27
2019-05-02T19:49:22.105Z,55.30
2019-05-02T19:51:22.797Z,55.14
2019-05-02T19:53:24.422Z,55.06
2019-05-02T19:55:27.464Z,55.02
2019-05-02T19:57:27.674Z,54.97
2019-05-02T19:59:29.732Z,54.87
2019-05-02T20:01:30.880Z,54.89
2019-05-02T20:03:32.541Z,54.92
2019-05-02T20:05:34.153Z,54.96
2019-05-02T20:07:35.737Z,55.01
2019-05-02T20:09:38.097Z,54.95
2019-05-02T20:11:38.996Z,54.90
2019-05-02T20:13:40.619Z,54.86
2019-05-02T20:15:42.670Z,54.95
2019-05-02T20:17:44.330Z,54.98
2019-05-02T20:19:45.944Z,55.13
2019-05-02T20:21:48.130Z,55.22
2019-05-02T20:23:49.716Z,55.34
2019-05-02T20:25:52.225Z,55.48
2019-05-02T20:27:52.976Z,55.55
2019-05-02T20:29:54.600Z,55.65
2019-05-02T20:31:56.188Z,55.70
2019-05-02T20:33:57.776Z,55.74
2019-05-02T20:35:59.345Z,55.90
2019-05-02T20:38:01.650Z,55.93
2019-05-02T20:40:02.886Z,55.99
2019-05-02T20:42:04.330Z,55.95
2019-05-02T20:44:05.952Z,56.06
2019-05-02T20:46:07.561Z,56.09
2019-05-02T20:48:09.151Z,56.13
2019-05-02T20:50:12.075Z,56.14
2019-05-02T20:52:12.432Z,56.20
2019-05-02T20:54:14.066Z,55.44
2019-05-02T20:56:15.678Z,54.65
2019-05-02T20:58:17.269Z,53.84
2019-05-02T21:00:18.843Z,53.77
2019-05-02T21:02:20.448Z,53.71
2019-05-02T21:04:22.815Z,54.42
2019-05-02T21:06:37.419Z,54.74
2019-05-02T21:08:28.464Z,55.02
2019-05-02T21:10:30.058Z,54.41
2019-05-02T21:12:31.680Z,53.95
2019-05-02T21:14:33.267Z,53.77
2019-05-02T21:16:34.880Z,53.81
2019-05-02T21:18:36.500Z,54.23
2019-05-02T21:20:38.079Z,54.30
2019-05-02T21:22:39.706Z,54.15
2019-05-02T21:24:42.080Z,54.29
2019-05-02T21:26:42.989Z,54.50
2019-05-02T21:28:46.183Z,54.50
2019-05-02T21:30:46.252Z,54.50
2019-05-02T21:32:47.854Z,54.37
2019-05-02T21:34:49.441Z,54.42
2019-05-02T21:36:51.854Z,54.62
2019-05-02T21:38:52.668Z,54.19
2019-05-02T21:40:54.267Z,54.02
2019-05-02T21:42:55.883Z,53.83
2019-05-02T21:44:57.496Z,53.92
2019-05-02T21:46:59.083Z,53.92
2019-05-02T21:49:00.699Z,53.48
2019-05-02T21:51:03.076Z,53.51
2019-05-02T21:53:06.493Z,53.47
2019-05-02T21:55:08.100Z,53.67
2019-05-02T21:57:09.688Z,54.25
2019-05-02T21:59:12.101Z,53.41
2019-05-02T22:01:13.109Z,53.71
2019-05-02T22:03:14.660Z,53.65
2019-05-02T22:05:16.244Z,53.96
2019-05-02T22:07:17.856Z,53.98
2019-05-02T22:09:19.449Z,54.23
2019-05-02T22:11:22.600Z,54.47
2019-05-02T22:13:22.752Z,54.36
2019-05-02T22:15:24.340Z,54.22
2019-05-02T22:17:25.939Z,54.20
2019-05-02T22:19:27.534Z,53.95
2019-05-02T22:21:29.171Z,53.68
2019-05-02T22:23:33.518Z,53.91
2019-05-02T22:25:32.727Z,54.40
2019-05-02T22:27:34.015Z,53.68
2019-05-02T22:29:35.603Z,53.43
2019-05-02T22:31:37.212Z,54.36
2019-05-02T22:33:38.828Z,54.52
2019-05-02T22:35:43.117Z,54.26
2019-05-02T22:37:42.097Z,53.35
2019-05-02T22:39:45.444Z,54.17
2019-05-02T22:41:47.079Z,53.44
2019-05-02T22:43:48.687Z,54.32
2019-05-02T22:45:50.282Z,54.69
2019-05-02T22:47:52.094Z,54.54
2019-05-02T22:49:53.498Z,54.30
2019-05-02T22:51:55.102Z,53.78
2019-05-02T22:53:56.699Z,50.54
2019-05-02T22:55:58.303Z,53.86
2019-05-02T22:57:59.892Z,53.87
2019-05-02T23:00:01.976Z,54.25
2019-05-02T23:02:03.126Z,54.48
2019-05-02T23:04:04.748Z,54.76
2019-05-02T23:06:06.334Z,55.01
2019-05-02T23:08:08.134Z,55.30
2019-05-02T23:10:09.723Z,55.44
2019-05-02T23:12:13.044Z,55.74
2019-05-02T23:14:12.980Z,55.90
2019-05-02T23:16:14.592Z,56.12
2019-05-02T23:18:16.245Z,56.27
2019-05-02T23:20:17.855Z,56.45
2019-05-02T23:22:19.431Z,56.63
2019-05-02T23:24:38.666Z,56.66
2019-05-02T23:26:40.047Z,56.89
2019-05-02T23:28:42.483Z,56.87
2019-05-02T23:30:44.070Z,57.02
2019-05-02T23:32:45.662Z,57.07
2019-05-02T23:34:47.283Z,57.40
2019-05-02T23:36:48.884Z,57.43
2019-05-02T23:38:52.210Z,57.24
2019-05-02T23:40:52.607Z,57.40
2019-05-02T23:42:53.796Z,57.28
2019-05-02T23:44:55.420Z,57.68
2019-05-02T23:46:56.995Z,57.66
2019-05-02T23:48:58.582Z,58.11
2019-05-02T23:51:00.183Z,58.16
2019-05-02T23:53:02.346Z,58.32
2019-05-02T23:55:03.471Z,58.42
2019-05-02T23:57:05.057Z,58.55
2019-05-02T23:59:06.660Z,58.51
